Clarendon, TX (79226)

10:07 PM CDT on May 05, 2015 (GMT -0500)
WT_Meso | | Change Station
CLOSE
Current Station
Personal Weather Station
Location: Clarendon, TX
Elevation: 2835 ft
Nearby Weather Stations

Elev 2835 ft 34.92 °N, 100.93 °W | Updated 22 minutes ago

Overcast
Overcast
55 °F
Feels Like 55 °F
N
6
Wind Variable Wind from SE
Gusts 8.0 mph

Today
High -- | Low -- °F
--% Chance of Precip.
Yesterday
High -- | Low -- °F
Precip. -- in
6:48 AM 8:32 PM
Waning Gibbous, 96% visible
Pressure 29.85 in
Visibility 10.0 miles
Clouds Scattered Clouds 6500 ft
Scattered Clouds 8500 ft
Overcast 12000 ft
Dew Point 52 °F
Humidity 92%
Rainfall in
Snow Depth Not available.
UV 0 out of 12
Pollen .80 out of 12
Air Quality Not available.
Flu Activity Sporadic
METAR KPPA 060255Z AUTO 16006KT 10SM SCT065 SCT085 OVC120 13/11 A2985 RMK AO2 LTG DSNT E T01300107

More Conditions Fewer Conditions

Pressure 29.85 in
Visibility 10.0 miles
Clouds Scattered Clouds 6500 ft
Scattered Clouds 8500 ft
Overcast 12000 ft
Dew Point 52 °F
Humidity 92%
Rainfall in
Snow Depth Not available.
UV 0 out of 12
Pollen .80 out of 12
Air Quality Not available.
Flu Activity Sporadic
METAR KPPA 060255Z AUTO 16006KT 10SM SCT065 SCT085 OVC120 13/11 A2985 RMK AO2 LTG DSNT E T01300107

More Conditions Fewer Conditions

10-Day Weather Forecast

Almanac

Astronomy

May. 05, 2015 Rise Set
Actual Time
Civil Twilight
Nautical Twilight
Astronomical Twilight
Moon
Length of Visible Light
Length of Day
Tomorrow will be .
, % of the Moon is Illuminated

Today's Extremes

State Highs State Lows

Community

WunderPhotos

Upload Photos

1,819,061 photos uploaded!

WunderBlogs® & News

Nearby

Air Quality

  Air Quality AQ Index Pollutant
Not available.

Snow Depth

Station Depth Elevation

Earthquake Activity

City Distance Mag. Time & Date
Minimum magnitude displayed is 2.5.

Coastal Water Temperatures

Place Temperature

Stations

Nearby Weather Stations

Station Location Temp. Windchill Dew Point Humidity Wind Precip. Elev Updated Type